createdAt,value
2023-05-24T02:07:18.148Z,11.07
2023-05-24T02:07:57.462Z,13.86
2023-05-24T02:08:57.443Z,12.17
2023-05-24T02:09:57.452Z,9.57
2023-05-24T02:10:58.133Z,8.20
2023-05-24T02:11:57.759Z,7.29
2023-05-24T02:12:57.438Z,7.33
2023-05-24T02:13:57.425Z,6.17
2023-05-24T02:14:57.397Z,6.26
2023-05-24T02:15:58.290Z,5.45
2023-05-24T02:16:57.428Z,5.75
2023-05-24T02:17:57.391Z,5.70
2023-05-24T02:18:57.351Z,5.97
2023-05-24T02:19:57.388Z,5.79
2023-05-24T02:20:57.677Z,6.10
2023-05-24T02:21:57.340Z,5.40
2023-05-24T02:22:57.307Z,5.26
2023-05-24T02:23:57.317Z,4.95
2023-05-24T02:24:57.564Z,5.75
2023-05-24T02:25:58.198Z,5.77
2023-05-24T02:26:57.267Z,5.20
2023-05-24T02:27:57.258Z,5.02
2023-05-24T02:28:57.275Z,6.45
2023-05-24T02:29:57.642Z,4.70
2023-05-24T02:30:57.252Z,5.21
2023-05-24T02:31:57.228Z,4.99
2023-05-24T02:32:57.542Z,5.35
2023-05-24T02:33:57.212Z,5.28
2023-05-24T02:34:57.206Z,5.03
2023-05-24T02:35:57.204Z,4.94
2023-05-24T02:36:57.195Z,4.96
2023-05-24T02:37:57.510Z,5.46
2023-05-24T02:38:57.162Z,6.17
2023-05-24T02:39:57.298Z,5.44
2023-05-24T02:40:57.089Z,5.67
2023-05-24T02:41:57.098Z,5.84
2023-05-24T02:42:57.060Z,5.55
2023-05-24T02:43:57.397Z,5.44
2023-05-24T02:44:57.042Z,5.39
2023-05-24T02:45:57.088Z,5.34
2023-05-24T02:46:57.085Z,5.16
2023-05-24T02:47:57.091Z,5.67
2023-05-24T02:48:57.145Z,4.22
2023-05-24T02:49:57.016Z,5.63
2023-05-24T02:50:57.008Z,4.57
2023-05-24T02:51:56.976Z,4.61
2023-05-24T02:52:56.971Z,5.08
2023-05-24T02:53:56.966Z,5.36
2023-05-24T02:54:56.931Z,5.49
2023-05-24T02:55:56.919Z,5.45
2023-05-24T02:56:56.925Z,5.17
2023-05-24T02:57:57.392Z,5.01
2023-05-24T02:58:57.285Z,5.82
2023-05-24T02:59:56.912Z,6.07
2023-05-24T03:00:56.871Z,5.48
2023-05-24T03:01:56.930Z,5.77
2023-05-24T03:02:57.564Z,5.03
2023-05-24T03:03:56.917Z,5.28
2023-05-24T03:04:56.841Z,4.48
2023-05-24T03:05:56.803Z,5.13
2023-05-24T03:06:56.835Z,5.31
2023-05-24T03:07:57.108Z,5.19
2023-05-24T03:08:56.811Z,5.05
2023-05-24T03:09:56.790Z,5.16
2023-05-24T03:10:56.755Z,5.36
2023-05-24T03:11:57.150Z,5.42
2023-05-24T03:12:57.086Z,5.29
2023-05-24T03:13:56.769Z,4.97
2023-05-24T03:14:56.728Z,5.96
2023-05-24T03:15:56.783Z,4.54
2023-05-24T03:16:57.073Z,5.25
2023-05-24T03:17:56.772Z,5.40
2023-05-24T03:18:56.685Z,5.55
2023-05-24T03:19:56.743Z,6.19
2023-05-24T03:20:56.676Z,5.92
2023-05-24T03:21:56.968Z,6.58
2023-05-24T03:22:56.637Z,5.42
2023-05-24T03:23:56.649Z,6.19
2023-05-24T03:24:56.642Z,6.40
2023-05-24T03:25:57.566Z,6.68
2023-05-24T03:26:56.994Z,5.66
2023-05-24T03:27:56.624Z,6.75
2023-05-24T03:28:56.616Z,6.01
2023-05-24T03:29:56.649Z,6.39
2023-05-24T03:30:56.855Z,5.15
2023-05-24T03:31:56.640Z,6.45
2023-05-24T03:32:56.564Z,5.99
2023-05-24T03:33:56.576Z,5.60
2023-05-24T03:34:56.535Z,7.22
2023-05-24T03:35:56.604Z,6.28
2023-05-24T03:36:56.504Z,5.47
2023-05-24T03:37:56.500Z,5.51
2023-05-24T03:38:56.476Z,5.71
2023-05-24T03:39:56.937Z,5.31
2023-05-24T03:40:56.854Z,6.35
2023-05-24T03:41:56.456Z,5.62
2023-05-24T03:42:56.460Z,6.24
2023-05-24T03:43:56.438Z,5.59
2023-05-24T03:44:56.767Z,6.28
2023-05-24T03:45:56.498Z,5.06
2023-05-24T03:46:56.433Z,5.78
2023-05-24T03:47:56.438Z,4.44
2023-05-24T03:48:56.384Z,5.91
2023-05-24T03:49:56.770Z,6.23
2023-05-24T03:50:56.372Z,5.93
2023-05-24T03:51:56.394Z,5.93
2023-05-24T03:52:56.335Z,5.94
2023-05-24T03:53:56.361Z,5.96
2023-05-24T03:54:56.772Z,5.67
2023-05-24T03:55:56.326Z,5.67
2023-05-24T03:56:56.337Z,5.85
2023-05-24T03:57:56.302Z,5.99
2023-05-24T03:58:56.818Z,5.22
2023-05-24T03:59:56.266Z,5.36
2023-05-24T04:00:56.285Z,5.16
2023-05-24T04:01:56.260Z,6.07
2023-05-24T04:02:56.409Z,5.34
2023-05-24T04:03:56.257Z,5.29
2023-05-24T04:04:56.211Z,5.07
2023-05-24T04:05:56.232Z,5.49
2023-05-24T04:06:56.222Z,5.38
2023-05-24T04:07:56.270Z,5.22
2023-05-24T04:08:56.514Z,5.58
2023-05-24T04:09:56.165Z,5.43
2023-05-24T04:10:56.157Z,5.70
2023-05-24T04:11:56.136Z,6.06
2023-05-24T04:12:56.164Z,5.40
2023-05-24T04:13:56.185Z,5.84
2023-05-24T04:14:56.133Z,5.80
2023-05-24T04:15:56.114Z,5.29
2023-05-24T04:16:56.174Z,5.52
2023-05-24T04:17:56.290Z,6.20
2023-05-24T04:18:56.143Z,7.20
2023-05-24T04:19:56.081Z,5.34
2023-05-24T04:20:56.053Z,5.77
2023-05-24T04:21:56.308Z,6.03
2023-05-24T04:22:56.464Z,5.58
2023-05-24T04:23:56.050Z,5.72
2023-05-24T04:24:56.045Z,6.42
2023-05-24T04:25:56.031Z,5.72
2023-05-24T04:26:56.098Z,6.06
2023-05-24T04:27:55.979Z,6.29
2023-05-24T04:28:55.970Z,4.84
2023-05-24T04:29:55.983Z,6.10
2023-05-24T04:30:55.943Z,5.13
2023-05-24T04:31:55.948Z,5.72
2023-05-24T04:32:56.010Z,5.83
2023-05-24T04:33:55.931Z,5.09
2023-05-24T04:34:55.917Z,5.43
2023-05-24T04:35:56.286Z,5.84
2023-05-24T04:36:56.224Z,6.09
2023-05-24T04:37:55.921Z,5.30
2023-05-24T04:38:55.876Z,5.57
2023-05-24T04:39:55.889Z,6.47
2023-05-24T04:40:56.029Z,5.08
2023-05-24T04:41:55.847Z,5.03
2023-05-24T04:42:55.819Z,5.60
2023-05-24T04:43:55.813Z,5.72
2023-05-24T04:44:55.825Z,5.00
2023-05-24T04:45:56.297Z,4.96
2023-05-24T04:46:55.840Z,5.25
2023-05-24T04:47:55.826Z,4.95
2023-05-24T04:48:55.768Z,5.20
2023-05-24T04:49:56.090Z,5.21
2023-05-24T04:50:55.778Z,5.08
2023-05-24T04:51:55.730Z,4.53
2023-05-24T04:52:55.717Z,4.60
2023-05-24T04:53:55.720Z,5.22
2023-05-24T04:54:55.795Z,5.03
2023-05-24T04:55:55.727Z,5.63
2023-05-24T04:56:55.685Z,4.91
2023-05-24T04:57:55.729Z,4.63
2023-05-24T04:58:55.689Z,5.00
2023-05-24T04:59:56.129Z,4.78
2023-05-24T05:00:55.672Z,4.59
2023-05-24T05:01:55.659Z,5.69
2023-05-24T05:02:55.756Z,4.43
2023-05-24T05:03:56.057Z,4.74
2023-05-24T05:04:55.962Z,4.75
2023-05-24T05:05:55.624Z,5.27
2023-05-24T05:06:55.603Z,5.10
2023-05-24T05:07:55.589Z,5.41
2023-05-24T05:08:55.907Z,4.95
2023-05-24T05:09:55.585Z,5.03
2023-05-24T05:10:55.552Z,5.31
2023-05-24T05:11:55.552Z,4.50
2023-05-24T05:12:55.523Z,5.33
2023-05-24T05:13:55.820Z,5.45
2023-05-24T05:14:55.533Z,4.88
2023-05-24T05:15:55.528Z,5.12
2023-05-24T05:16:55.510Z,5.56
2023-05-24T05:17:55.518Z,5.33
2023-05-24T05:18:55.497Z,4.99
2023-05-24T05:19:55.497Z,6.04
2023-05-24T05:20:55.456Z,5.57
2023-05-24T05:21:55.435Z,5.24
2023-05-24T05:22:55.794Z,5.62
2023-05-24T05:23:55.832Z,4.66
2023-05-24T05:24:55.407Z,5.28
2023-05-24T05:25:55.447Z,4.86
2023-05-24T05:26:55.380Z,4.72
2023-05-24T05:27:55.740Z,5.72
2023-05-24T05:28:55.364Z,5.50
2023-05-24T05:29:55.377Z,5.70
2023-05-24T05:30:55.441Z,5.65
2023-05-24T05:31:55.435Z,6.40
2023-05-24T05:32:55.713Z,5.51
2023-05-24T05:33:55.335Z,5.34
2023-05-24T05:34:55.336Z,6.34
2023-05-24T05:35:55.309Z,5.84
2023-05-24T05:36:55.837Z,6.73
2023-05-24T05:37:55.363Z,6.58
2023-05-24T05:38:55.292Z,7.73
2023-05-24T05:39:55.259Z,7.91
2023-05-24T05:40:55.240Z,7.02
2023-05-24T05:41:55.284Z,6.66
2023-05-24T05:42:55.228Z,6.65
2023-05-24T05:43:55.203Z,7.53
2023-05-24T05:44:55.223Z,6.10
2023-05-24T05:45:55.249Z,6.87
2023-05-24T05:46:55.648Z,7.52
2023-05-24T05:47:55.331Z,7.35
2023-05-24T05:48:55.153Z,8.04
2023-05-24T05:49:55.170Z,8.13
2023-05-24T05:50:55.204Z,7.30
2023-05-24T05:51:55.177Z,7.35
2023-05-24T05:52:55.150Z,7.19
2023-05-24T05:53:55.133Z,7.93
2023-05-24T05:54:55.127Z,7.66
2023-05-24T05:55:55.421Z,7.42
2023-05-24T05:56:55.591Z,6.32
2023-05-24T05:57:55.085Z,8.03
2023-05-24T05:58:55.072Z,7.59
2023-05-24T05:59:55.080Z,7.60
2023-05-24T06:00:55.557Z,7.15
2023-05-24T06:01:55.012Z,7.78
2023-05-24T06:02:55.261Z,7.50
2023-05-24T06:03:55.119Z,7.54
2023-05-24T06:04:55.101Z,7.73
2023-05-24T06:05:55.268Z,7.50
2023-05-24T06:06:55.008Z,6.55
2023-05-24T06:07:54.956Z,7.97
2023-05-24T06:08:54.990Z,7.11
2023-05-24T06:09:55.374Z,6.90
2023-05-24T06:10:55.683Z,7.20
2023-05-24T06:11:54.980Z,7.05
2023-05-24T06:12:54.998Z,7.84
2023-05-24T06:13:54.926Z,8.02
2023-05-24T06:14:55.284Z,7.97
2023-05-24T06:15:54.933Z,7.94
2023-05-24T06:16:55.404Z,7.51
2023-05-24T06:17:55.018Z,7.18
2023-05-24T06:19:05.430Z,7.36
2023-05-24T06:19:55.360Z,7.73
2023-05-24T06:20:54.868Z,7.22
2023-05-24T06:21:54.881Z,7.12
2023-05-24T06:22:54.832Z,6.70
2023-05-24T06:23:55.296Z,7.60
2023-05-24T06:24:55.199Z,8.37
2023-05-24T06:25:54.802Z,8.16
2023-05-24T06:26:54.798Z,8.13
2023-05-24T06:27:54.756Z,7.59
2023-05-24T06:28:55.123Z,6.99
2023-05-24T06:29:54.779Z,8.03
2023-05-24T06:30:54.787Z,7.93
2023-05-24T06:31:54.855Z,8.13
2023-05-24T06:32:54.774Z,8.02
2023-05-24T06:34:03.763Z,8.35
2023-05-24T06:34:54.705Z,7.94
2023-05-24T06:35:54.688Z,8.17
2023-05-24T06:36:54.673Z,7.87
2023-05-24T06:37:55.566Z,7.86
2023-05-24T06:38:55.038Z,8.32
2023-05-24T06:39:54.676Z,7.15
2023-05-24T06:40:54.661Z,7.05
2023-05-24T06:41:54.634Z,7.61
2023-05-24T06:42:54.806Z,9.19
2023-05-24T06:43:54.595Z,8.53
2023-05-24T06:44:54.629Z,8.48
2023-05-24T06:45:54.595Z,6.95
2023-05-24T06:46:54.647Z,8.24
2023-05-24T06:47:54.964Z,8.23
2023-05-24T06:48:54.677Z,8.01
2023-05-24T06:49:54.639Z,7.99
2023-05-24T06:50:54.531Z,7.50
2023-05-24T06:51:54.851Z,7.95
2023-05-24T06:52:54.846Z,8.07
2023-05-24T06:53:54.548Z,7.63
2023-05-24T06:54:54.553Z,9.11
2023-05-24T06:55:56.810Z,7.33
2023-05-24T06:56:55.247Z,8.21
2023-05-24T06:57:54.458Z,7.87
2023-05-24T06:58:54.449Z,7.33
2023-05-24T06:59:54.461Z,8.65
2023-05-24T07:00:54.513Z,8.42
2023-05-24T07:01:54.864Z,8.46
2023-05-24T07:02:54.463Z,8.64
2023-05-24T07:03:54.394Z,9.18
2023-05-24T07:04:54.540Z,8.32
2023-05-24T07:05:54.732Z,8.52
2023-05-24T07:06:55.125Z,8.14
2023-05-24T07:07:54.401Z,9.14
2023-05-24T07:08:54.352Z,8.89
2023-05-24T07:09:54.345Z,8.51
2023-05-24T07:10:54.622Z,9.29
2023-05-24T07:11:54.324Z,8.11
2023-05-24T07:12:54.349Z,9.48
2023-05-24T07:13:54.391Z,7.13
2023-05-24T07:14:54.315Z,9.52
2023-05-24T07:15:54.866Z,9.05
2023-05-24T07:16:54.289Z,8.62
2023-05-24T07:17:54.289Z,8.94
2023-05-24T07:18:54.287Z,8.59
2023-05-24T07:19:54.654Z,9.05
2023-05-24T07:20:54.585Z,8.74
2023-05-24T07:21:54.436Z,9.16
2023-05-24T07:22:54.226Z,8.80
2023-05-24T07:23:54.181Z,8.37
2023-05-24T07:24:54.541Z,8.06
2023-05-24T07:25:54.158Z,8.12
2023-05-24T07:26:54.185Z,8.54
2023-05-24T07:27:54.146Z,9.01
2023-05-24T07:28:54.171Z,7.41
2023-05-24T07:29:54.179Z,8.18
2023-05-24T07:30:54.100Z,8.45
2023-05-24T07:31:54.243Z,8.93
2023-05-24T07:32:54.301Z,8.18
2023-05-24T07:33:54.102Z,8.10
2023-05-24T07:34:54.519Z,8.23
2023-05-24T07:35:54.095Z,8.65
2023-05-24T07:36:54.058Z,7.68
2023-05-24T07:37:54.051Z,8.91
2023-05-24T07:38:54.404Z,9.39
2023-05-24T07:39:54.377Z,8.89
2023-05-24T07:40:54.041Z,8.66
2023-05-24T07:41:54.034Z,8.72
2023-05-24T07:42:54.021Z,7.74
2023-05-24T07:43:54.371Z,7.54
2023-05-24T07:44:54.015Z,7.27
2023-05-24T07:45:54.021Z,7.88
2023-05-24T07:46:54.061Z,8.15
2023-05-24T07:47:56.574Z,7.70
2023-05-24T07:48:54.291Z,7.35
2023-05-24T07:49:53.937Z,8.19
2023-05-24T07:50:53.977Z,8.26
2023-05-24T07:51:53.928Z,7.81
2023-05-24T07:52:54.272Z,7.24
2023-05-24T07:53:54.110Z,7.17
2023-05-24T07:54:53.923Z,7.56
2023-05-24T07:55:53.894Z,7.33
2023-05-24T07:56:53.877Z,6.82
2023-05-24T07:57:54.621Z,7.35
2023-05-24T07:58:53.872Z,7.12
2023-05-24T07:59:53.848Z,6.12
2023-05-24T08:00:53.856Z,8.01
2023-05-24T08:01:53.850Z,7.12
2023-05-24T08:02:54.467Z,7.06
2023-05-24T08:03:53.925Z,7.72
2023-05-24T08:04:53.814Z,7.94
2023-05-24T08:05:53.842Z,7.51
2023-05-24T08:06:54.660Z,6.95
2023-05-24T08:07:54.076Z,7.90
2023-05-24T08:08:53.798Z,6.97
2023-05-24T08:09:53.752Z,7.48
2023-05-24T08:10:53.767Z,6.95
2023-05-24T08:11:54.575Z,8.42
2023-05-24T08:12:53.739Z,7.85
2023-05-24T08:13:53.786Z,8.70
2023-05-24T08:14:53.940Z,7.51
2023-05-24T08:15:53.760Z,7.64
2023-05-24T08:16:54.140Z,7.83
2023-05-24T08:17:53.685Z,8.34
2023-05-24T08:18:55.327Z,7.61
2023-05-24T08:19:53.736Z,6.65
2023-05-24T08:20:54.132Z,7.12
2023-05-24T08:21:54.006Z,7.09
2023-05-24T08:22:53.634Z,7.53
2023-05-24T08:23:53.628Z,7.24
2023-05-24T08:24:53.648Z,6.62
2023-05-24T08:25:53.992Z,6.83
2023-05-24T08:26:53.575Z,8.04
2023-05-24T08:27:53.683Z,8.34
2023-05-24T08:28:53.557Z,6.50
2023-05-24T08:29:55.466Z,7.55
2023-05-24T08:30:53.871Z,7.12
2023-05-24T08:31:53.674Z,7.62
2023-05-24T08:32:53.622Z,6.32
2023-05-24T08:33:53.548Z,6.66
2023-05-24T08:35:00.434Z,6.33
2023-05-24T08:35:53.925Z,6.62
2023-05-24T08:36:53.460Z,7.04
2023-05-24T08:37:53.456Z,5.77
2023-05-24T08:38:53.634Z,7.10
2023-05-24T08:39:53.795Z,7.07
2023-05-24T08:40:53.435Z,7.10
2023-05-24T08:42:07.878Z,6.31
2023-05-24T08:42:53.415Z,6.12
2023-05-24T08:43:53.389Z,6.55
2023-05-24T08:44:53.813Z,6.77
2023-05-24T08:45:53.464Z,5.80
2023-05-24T08:46:53.425Z,6.22
2023-05-24T08:47:53.479Z,6.09
2023-05-24T08:48:53.414Z,5.37
2023-05-24T08:49:53.844Z,5.73
2023-05-24T08:50:53.298Z,5.19
2023-05-24T08:51:53.357Z,6.23
2023-05-24T08:52:53.301Z,5.57
2023-05-24T08:53:53.712Z,5.54
2023-05-24T08:54:53.620Z,6.61
2023-05-24T08:55:53.264Z,5.95
2023-05-24T08:56:53.276Z,5.23
2023-05-24T08:57:53.258Z,5.86
2023-05-24T08:58:53.569Z,5.80
2023-05-24T08:59:53.235Z,6.03
2023-05-24T09:00:53.221Z,5.67
2023-05-24T09:01:53.258Z,5.46
2023-05-24T09:02:53.203Z,6.02
2023-05-24T09:03:53.588Z,5.96
2023-05-24T09:04:53.148Z,6.22
2023-05-24T09:05:53.258Z,6.32
2023-05-24T09:06:53.127Z,6.60
2023-05-24T09:07:53.470Z,5.74
2023-05-24T09:08:53.489Z,5.66
2023-05-24T09:09:53.097Z,5.65
2023-05-24T09:10:55.638Z,5.99
2023-05-24T09:11:53.095Z,5.96
2023-05-24T09:12:53.437Z,5.09
2023-05-24T09:13:53.082Z,5.78
2023-05-24T09:14:53.069Z,5.63
2023-05-24T09:15:53.102Z,5.25
2023-05-24T09:16:53.017Z,5.40
2023-05-24T09:17:53.748Z,6.41
2023-05-24T09:18:53.010Z,5.98
2023-05-24T09:19:53.032Z,5.27
2023-05-24T09:20:53.158Z,5.83
2023-05-24T09:21:53.291Z,5.42
2023-05-24T09:22:53.298Z,6.08
2023-05-24T09:23:52.940Z,5.59
2023-05-24T09:24:52.953Z,5.42
2023-05-24T09:25:52.905Z,5.36
2023-05-24T09:26:53.516Z,5.05
2023-05-24T09:27:52.906Z,5.80
2023-05-24T09:28:52.921Z,5.18
2023-05-24T09:29:53.011Z,5.42
2023-05-24T09:30:53.232Z,5.87
2023-05-24T09:31:53.195Z,5.51
2023-05-24T09:32:52.947Z,5.49
2023-05-24T09:33:52.814Z,5.56
2023-05-24T09:34:52.989Z,4.90
2023-05-24T09:35:53.229Z,4.84
2023-05-24T09:36:52.792Z,5.93
2023-05-24T09:37:52.810Z,5.00
2023-05-24T09:38:52.760Z,4.74
2023-05-24T09:39:52.789Z,5.22
2023-05-24T09:40:53.521Z,4.89
2023-05-24T09:41:52.736Z,4.57
2023-05-24T09:42:52.717Z,4.95
2023-05-24T09:43:52.707Z,5.28
2023-05-24T09:44:53.004Z,5.07
2023-05-24T09:45:53.026Z,5.22
2023-05-24T09:46:52.772Z,5.12
2023-05-24T09:47:52.748Z,4.79
2023-05-24T09:48:52.659Z,4.88
2023-05-24T09:49:52.994Z,5.47
2023-05-24T09:50:52.626Z,5.27
2023-05-24T09:51:52.618Z,5.07
2023-05-24T09:52:52.704Z,5.04
2023-05-24T09:53:52.599Z,5.32
2023-05-24T09:54:52.786Z,5.32
2023-05-24T09:55:52.565Z,5.33
2023-05-24T09:56:52.580Z,5.11
2023-05-24T09:57:52.547Z,5.18
2023-05-24T09:58:52.558Z,5.78
2023-05-24T09:59:52.776Z,5.22
2023-05-24T10:00:52.575Z,4.89
2023-05-24T10:01:52.554Z,5.20
2023-05-24T10:02:53.826Z,5.42
2023-05-24T10:03:52.588Z,5.21
2023-05-24T10:04:52.709Z,4.72
2023-05-24T10:05:52.462Z,5.87
2023-05-24T10:06:52.480Z,5.98
2023-05-24T10:07:52.487Z,5.82
2023-05-24T10:08:52.502Z,5.63
2023-05-24T10:09:52.473Z,6.27
2023-05-24T10:10:52.468Z,5.57
2023-05-24T10:11:52.402Z,5.67
2023-05-24T10:12:52.771Z,5.76
2023-05-24T10:13:52.674Z,5.87
2023-05-24T10:14:52.393Z,5.84
2023-05-24T10:15:52.403Z,5.89
2023-05-24T10:16:52.383Z,5.51
2023-05-24T10:17:53.186Z,5.98
2023-05-24T10:18:52.299Z,4.36
2023-05-24T10:19:52.357Z,5.19
2023-05-24T10:20:52.699Z,4.75
2023-05-24T10:21:52.368Z,5.84
2023-05-24T10:22:52.679Z,5.10
2023-05-24T10:23:52.252Z,5.25
2023-05-24T10:24:52.260Z,4.34
2023-05-24T10:25:52.255Z,5.91
2023-05-24T10:26:52.519Z,5.37
2023-05-24T10:27:53.136Z,4.76
2023-05-24T10:28:52.205Z,4.83
2023-05-24T10:29:52.193Z,4.55
2023-05-24T10:30:52.238Z,5.05
2023-05-24T10:31:52.677Z,5.20
2023-05-24T10:32:52.235Z,5.26
2023-05-24T10:33:52.217Z,4.70
2023-05-24T10:34:52.115Z,4.65
2023-05-24T10:35:52.139Z,4.84
2023-05-24T10:36:52.608Z,4.30
2023-05-24T10:37:52.082Z,5.44
2023-05-24T10:38:52.102Z,4.46
2023-05-24T10:39:52.095Z,4.57
2023-05-24T10:40:52.400Z,4.73
2023-05-24T10:41:52.304Z,4.55
2023-05-24T10:42:52.116Z,5.35
2023-05-24T10:44:07.794Z,4.85
2023-05-24T10:44:51.994Z,4.62
2023-05-24T10:45:52.359Z,4.82
2023-05-24T10:46:52.069Z,4.85
2023-05-24T10:47:52.050Z,4.73
2023-05-24T10:48:51.987Z,4.83
2023-05-24T10:49:52.010Z,4.74
2023-05-24T10:50:52.306Z,4.97
2023-05-24T10:51:51.997Z,4.75
2023-05-24T10:52:53.056Z,5.22
2023-05-24T10:53:51.994Z,5.39
2023-05-24T10:55:52.095Z,5.11
2023-05-24T10:56:51.895Z,4.81
2023-05-24T10:57:51.874Z,4.73
2023-05-24T10:58:51.857Z,4.50
2023-05-24T10:59:52.199Z,4.40
2023-05-24T11:00:51.972Z,4.43
2023-05-24T11:01:51.869Z,4.94
2023-05-24T11:02:51.823Z,4.41
2023-05-24T11:03:51.799Z,5.36
2023-05-24T11:04:51.820Z,4.55
2023-05-24T11:05:51.959Z,4.94
2023-05-24T11:06:51.790Z,4.93
2023-05-24T11:07:51.746Z,5.53
2023-05-24T11:08:52.094Z,4.96
2023-05-24T11:09:52.182Z,5.42
2023-05-24T11:10:51.714Z,4.96
2023-05-24T11:11:51.739Z,4.68
2023-05-24T11:12:51.686Z,4.34
2023-05-24T11:13:51.727Z,4.40
2023-05-24T11:14:51.721Z,4.47
2023-05-24T11:15:51.705Z,5.44
2023-05-24T11:16:51.975Z,4.77
2023-05-24T11:17:51.703Z,5.19
2023-05-24T11:18:52.033Z,5.12
2023-05-24T11:19:51.655Z,5.37
2023-05-24T11:20:51.708Z,4.86
2023-05-24T11:21:51.636Z,5.42
2023-05-24T11:22:51.839Z,5.03
2023-05-24T11:23:51.942Z,5.34
2023-05-24T11:24:51.701Z,5.51
2023-05-24T11:25:51.535Z,5.10
2023-05-24T11:26:51.509Z,5.46
2023-05-24T11:27:52.398Z,4.97
2023-05-24T11:28:51.518Z,4.55
2023-05-24T11:29:51.505Z,4.94
2023-05-24T11:30:51.485Z,5.31
2023-05-24T11:31:51.997Z,4.81
2023-05-24T11:32:51.885Z,5.23
2023-05-24T11:33:51.463Z,5.93
2023-05-24T11:34:51.433Z,4.80
2023-05-24T11:35:51.432Z,5.68
2023-05-24T11:36:51.437Z,5.93
2023-05-24T11:37:51.451Z,5.27
2023-05-24T11:38:51.430Z,5.41
2023-05-24T11:39:51.473Z,6.01
2023-05-24T11:40:51.681Z,5.32
2023-05-24T11:41:51.431Z,5.50
2023-05-24T11:42:51.329Z,4.97
2023-05-24T11:43:51.349Z,5.40
2023-05-24T11:44:51.342Z,6.21
2023-05-24T11:45:51.744Z,5.76
2023-05-24T11:46:51.684Z,6.06
2023-05-24T11:47:51.443Z,5.98
2023-05-24T11:48:51.297Z,5.92
2023-05-24T11:49:51.375Z,5.76
2023-05-24T11:50:52.041Z,4.90
2023-05-24T11:51:51.298Z,5.94
2023-05-24T11:52:51.978Z,5.59
2023-05-24T11:53:53.823Z,5.93
2023-05-24T11:54:51.341Z,6.09
2023-05-24T11:55:52.003Z,5.56
2023-05-24T11:56:51.239Z,5.87
2023-05-24T11:57:51.242Z,5.41
2023-05-24T11:58:51.205Z,5.22
2023-05-24T11:59:51.271Z,5.25
2023-05-24T12:00:51.635Z,4.70
2023-05-24T12:01:53.499Z,5.74
2023-05-24T12:02:51.171Z,6.45
2023-05-24T12:03:51.292Z,5.09
2023-05-24T12:04:51.224Z,5.45
2023-05-24T12:05:51.118Z,5.59
2023-05-24T12:06:51.070Z,5.77
2023-05-24T12:07:51.432Z,5.71
2023-05-24T12:08:51.066Z,5.07
2023-05-24T12:09:51.194Z,5.34
2023-05-24T12:10:51.065Z,5.27
2023-05-24T12:11:51.051Z,5.22
2023-05-24T12:12:51.060Z,6.18
2023-05-24T12:13:51.095Z,5.92
2023-05-24T12:14:51.007Z,6.36
2023-05-24T12:15:52.651Z,6.34
2023-05-24T12:16:51.079Z,6.65
2023-05-24T12:17:51.030Z,6.81
2023-05-24T12:19:02.278Z,5.18
2023-05-24T12:19:50.999Z,6.75
2023-05-24T12:20:50.952Z,5.57
2023-05-24T12:21:52.765Z,5.89
2023-05-24T12:22:50.879Z,7.53
2023-05-24T12:23:50.886Z,6.38
2023-05-24T12:24:50.955Z,6.56
2023-05-24T12:25:50.888Z,6.40
2023-05-24T12:26:50.864Z,6.35
2023-05-24T12:27:52.912Z,6.13
2023-05-24T12:28:50.845Z,5.74
2023-05-24T12:29:50.836Z,6.65
2023-05-24T12:30:50.847Z,5.27
2023-05-24T12:31:50.961Z,6.93
2023-05-24T12:32:51.157Z,6.75
2023-05-24T12:33:52.813Z,5.43
2023-05-24T12:34:50.726Z,6.61
2023-05-24T12:35:50.702Z,5.80
2023-05-24T12:36:50.712Z,6.53
2023-05-24T12:37:50.810Z,6.99
2023-05-24T12:38:50.737Z,6.73
2023-05-24T12:39:52.394Z,6.06
2023-05-24T12:41:03.885Z,6.53
2023-05-24T12:41:50.947Z,6.55
2023-05-24T12:42:50.962Z,6.69
2023-05-24T12:43:50.656Z,5.98
2023-05-24T12:44:50.607Z,6.19
2023-05-24T12:45:52.912Z,6.07
2023-05-24T12:46:50.978Z,5.99
2023-05-24T12:47:50.648Z,5.35
2023-05-24T12:48:50.632Z,6.27
2023-05-24T12:49:50.565Z,5.61
2023-05-24T12:50:50.541Z,5.76
2023-05-24T12:51:50.786Z,5.41
2023-05-24T12:52:50.497Z,5.10
2023-05-24T12:53:50.504Z,5.54
2023-05-24T12:54:50.533Z,5.67
2023-05-24T12:55:51.319Z,5.45
2023-05-24T12:56:53.469Z,5.54
2023-05-24T12:57:50.454Z,5.41
2023-05-24T12:58:50.452Z,5.52
2023-05-24T12:59:50.459Z,5.40
2023-05-24T13:00:50.752Z,5.49
2023-05-24T13:01:50.423Z,6.66
2023-05-24T13:02:50.516Z,6.05
2023-05-24T13:03:50.502Z,5.42
2023-05-24T13:04:50.401Z,6.42
2023-05-24T13:05:50.777Z,5.33
2023-05-24T13:06:50.419Z,6.63
2023-05-24T13:07:50.357Z,6.41
2023-05-24T13:08:50.393Z,5.71
2023-05-24T13:09:50.402Z,6.65
2023-05-24T13:10:50.540Z,5.72
2023-05-24T13:11:50.332Z,5.83
2023-05-24T13:12:50.278Z,5.78
2023-05-24T13:13:50.261Z,5.41
2023-05-24T13:14:52.156Z,5.15
2023-05-24T13:15:50.271Z,6.28
2023-05-24T13:16:50.288Z,5.90
2023-05-24T13:17:50.282Z,6.10
2023-05-24T13:18:50.222Z,6.09
2023-05-24T13:19:50.345Z,6.82
2023-05-24T13:20:50.269Z,4.47
2023-05-24T13:21:50.236Z,4.95
2023-05-24T13:22:50.154Z,5.53
2023-05-24T13:23:50.167Z,5.85
2023-05-24T13:24:50.194Z,5.60
2023-05-24T13:25:50.164Z,5.21
2023-05-24T13:26:51.696Z,5.70
2023-05-24T13:27:50.132Z,5.86
2023-05-24T13:29:18.308Z,5.09
2023-05-24T13:30:00.284Z,5.32
2023-05-24T13:30:50.129Z,4.99
2023-05-24T13:31:50.128Z,4.85
2023-05-24T13:32:50.125Z,5.43
2023-05-24T13:33:50.070Z,4.78
2023-05-24T13:34:50.066Z,4.17
2023-05-24T13:35:50.042Z,3.84
2023-05-24T13:36:50.069Z,4.83
2023-05-24T13:37:50.000Z,4.22
2023-05-24T13:38:59.295Z,3.86
2023-05-24T13:39:50.009Z,3.95
2023-05-24T13:40:50.041Z,4.82
2023-05-24T13:41:49.982Z,3.78
2023-05-24T13:42:50.463Z,3.68
2023-05-24T13:43:49.969Z,4.01
2023-05-24T13:44:49.927Z,4.07
2023-05-24T13:45:49.909Z,4.47
2023-05-24T13:46:49.968Z,4.48
2023-05-24T13:47:49.968Z,4.86
2023-05-24T13:48:49.876Z,3.66
2023-05-24T13:49:50.100Z,3.94
2023-05-24T13:50:49.865Z,3.79
2023-05-24T13:51:49.840Z,3.32
2023-05-24T13:52:49.827Z,3.33
2023-05-24T13:53:49.794Z,3.66
2023-05-24T13:54:49.813Z,3.77
2023-05-24T13:55:49.785Z,3.54
2023-05-24T13:56:49.818Z,3.36
2023-05-24T13:57:52.051Z,4.08
2023-05-24T13:58:49.749Z,3.91
2023-05-24T13:59:49.743Z,4.08
2023-05-24T14:00:49.724Z,2.62
2023-05-24T14:01:49.751Z,2.96
2023-05-24T14:02:49.716Z,2.83
2023-05-24T14:03:49.707Z,2.61
2023-05-24T14:04:49.736Z,3.13
2023-05-24T14:05:49.744Z,2.50
2023-05-24T14:06:50.179Z,2.01
2023-05-24T14:07:49.685Z,2.69
2023-05-24T14:08:49.701Z,2.97
2023-05-24T14:09:49.651Z,2.39
2023-05-24T14:10:49.792Z,2.29
2023-05-24T14:11:49.668Z,3.17
2023-05-24T14:13:03.381Z,2.70
2023-05-24T14:15:49.657Z,1.87
2023-05-24T14:16:49.608Z,2.08
2023-05-24T14:17:49.756Z,2.05
2023-05-24T14:18:49.546Z,1.81
2023-05-24T14:19:49.608Z,2.45
2023-05-24T14:20:49.542Z,2.60
2023-05-24T14:21:49.542Z,2.44
2023-05-24T14:22:49.460Z,2.32
2023-05-24T14:23:49.458Z,2.34
2023-05-24T14:24:49.432Z,2.06
2023-05-24T14:25:49.753Z,2.03
2023-05-24T14:26:49.402Z,1.96
2023-05-24T14:27:49.386Z,1.98
2023-05-24T14:28:49.385Z,2.20
2023-05-24T14:29:50.085Z,2.64
2023-05-24T14:30:49.368Z,2.55
2023-05-24T14:31:49.371Z,2.61
2023-05-24T14:32:49.352Z,2.38
2023-05-24T14:33:49.378Z,2.30
2023-05-24T14:34:49.616Z,2.06
2023-05-24T14:35:49.291Z,1.49
2023-05-24T14:36:49.294Z,2.48
2023-05-24T14:37:49.284Z,1.78
2023-05-24T14:38:50.053Z,2.09
2023-05-24T14:39:49.366Z,2.65
2023-05-24T14:40:49.303Z,2.40
2023-05-24T14:41:49.205Z,2.49
2023-05-24T14:42:49.216Z,2.78
2023-05-24T14:43:49.585Z,2.42
2023-05-24T14:44:49.196Z,2.65
2023-05-24T14:45:49.311Z,2.81
2023-05-24T14:46:49.153Z,2.24
2023-05-24T14:47:49.168Z,2.72
2023-05-24T14:48:49.901Z,3.35
2023-05-24T14:49:49.161Z,3.78
2023-05-24T14:50:49.146Z,2.77
2023-05-24T14:51:49.122Z,3.54
2023-05-24T14:52:49.126Z,3.63
2023-05-24T14:53:49.070Z,3.58
2023-05-24T14:54:49.053Z,3.10
2023-05-24T14:55:49.063Z,3.62
2023-05-24T14:56:49.127Z,2.91
2023-05-24T14:57:49.335Z,3.46
2023-05-24T14:58:49.120Z,2.59
2023-05-24T14:59:49.023Z,2.57
2023-05-24T15:00:49.242Z,3.38
2023-05-24T15:01:49.120Z,3.59
2023-05-24T15:02:49.123Z,2.72
2023-05-24T15:03:49.007Z,2.73
2023-05-24T15:04:48.944Z,2.86
2023-05-24T15:05:49.098Z,2.66
2023-05-24T15:06:49.453Z,2.84
2023-05-24T15:07:49.259Z,2.88
2023-05-24T15:08:48.916Z,2.94
2023-05-24T15:09:48.890Z,2.66
2023-05-24T15:10:48.882Z,2.96
2023-05-24T15:11:49.155Z,2.78
2023-05-24T15:12:48.952Z,2.76
2023-05-24T15:13:48.866Z,2.88
2023-05-24T15:14:48.835Z,2.91
2023-05-24T15:15:48.925Z,2.98
2023-05-24T15:16:48.917Z,2.26
2023-05-24T15:17:48.928Z,2.75
2023-05-24T15:18:48.817Z,2.32
2023-05-24T15:19:48.917Z,2.50
2023-05-24T15:20:49.392Z,2.60
2023-05-24T15:21:49.046Z,2.64
2023-05-24T15:22:48.742Z,2.81
2023-05-24T15:23:48.808Z,2.64
2023-05-24T15:24:48.727Z,2.38
2023-05-24T15:25:48.781Z,2.52
2023-05-24T15:26:48.750Z,2.35
2023-05-24T15:27:48.692Z,2.12